CSAV Brasilia — A8VK7 — position and weather

sailwx.info

Track history (hours):
 
Tides and Currents Weather Stations Pressure Air Temp Water Temp Dewpoint Dewpoint Depression Visibility Wind Speed Wind Dir Waves Ship Positions

CSAV Brasilia

Last reported at 2015-Feb-24 09:17 UTC. Time now 2015-Mar-27 02:00 UTC.
Position N 38°22' W 031°07'.
Warning: this ship's position is 30 days out of date.

Length 294 m; draft 13 m.

Type: Cargo ship. MMSI: 636092017.

Date/timePositionNaut miles runAvg speedWind from/ knotsBaromVisibWave heightAir tempDewpointWater temp
2015-Feb-24 09:17N 38°22' W 031°07'2816.2
2015-Feb-24 07:34N 38°36' W 030°36'1616.4
2015-Feb-24 06:34N 38°44' W 030°18'1616.2
2015-Feb-24 05:33N 38°53' W 030°00'1616.2
2015-Feb-24 04:33N 39°01' W 029°42'1615.9
2015-Feb-24 03:34N 39°09' W 029°25'1616.0
2015-Feb-24 02:33N 39°17' W 029°07'1616.1
2015-Feb-24 01:33N 39°26' W 028°49'1616.4
2015-Feb-24 00:33N 39°34' W 028°31'1616.5
2015-Feb-23 23:34N 39°43' W 028°13'1616.4
2015-Feb-23 22:34N 39°51' W 027°54'3716.6
2015-Feb-23 20:20N 40°10' W 027°13'  
2015-Feb-20 09:06N 50°27' W 000°22'713.2
2015-Feb-20 08:33N 50°28' W 000°11'1514.1
2015-Feb-20 07:30N 50°32' E 000°11'1515.8
2015-Feb-20 06:34N 50°37' E 000°34'1616.2
2015-Feb-20 05:34N 50°46' E 000°55'1615.5
2015-Feb-20 04:34N 50°55' E 001°15'1414.3
2015-Feb-20 03:33N 51°04' E 001°32'1212.5
2015-Feb-20 02:33N 51°13' E 001°46'1212.4
2015-Feb-20 01:33N 51°24' E 001°55'1313.0
2015-Feb-20 00:33N 51°34' E 002°08'1414.0
2015-Feb-19 23:33N 51°44' E 002°24'12014.9
2015-Feb-19 15:32N 53°16' E 004°29'1313.5
2015-Feb-19 14:33N 53°28' E 004°40'1515.2
2015-Feb-19 13:34N 53°34' E 005°03'1615.6
2015-Feb-19 12:34N 53°39' E 005°28'1515.4
2015-Feb-19 11:34N 53°44' E 005°52'1514.6
2015-Feb-19 10:34N 53°49' E 006°15'3413.8
2015-Feb-19 08:08N 53°57' E 007°11'913.8
2015-Feb-19 07:30N 53°59' E 007°25'1314.3
2015-Feb-19 06:33N 54°02' E 007°48'1514.6
2015-Feb-19 05:33N 54°00' E 008°12'1615.6
2015-Feb-19 04:33N 53°57' E 008°38'1514.6
2015-Feb-19 03:34N 53°51' E 009°01'1211.8
2015-Feb-19 02:33N 53°50' E 009°21'1212.4
2015-Feb-19 01:33N 53°39' E 009°31'10 9.5
2015-Feb-19 00:33N 53°34' E 009°44'6 6.3
2015-Feb-18 23:33N 53°32' E 009°54'0 0.0
2015-Feb-18 22:33N 53°32' E 009°54'0 0.0
2015-Feb-18 21:33N 53°32' E 009°54'0 0.0
2015-Feb-18 20:33N 53°32' E 009°54'0 0.0
2015-Feb-18 19:33N 53°32' E 009°54'0 0.0
2015-Feb-18 18:31N 53°32' E 009°54'0 0.0
2015-Feb-18 17:30N 53°32' E 009°54'0 0.0
2015-Feb-18 16:30N 53°32' E 009°54'0 0.0
2015-Feb-18 15:34N 53°32' E 009°54'0 0.0
2015-Feb-18 14:30N 53°32' E 009°54'0 0.0
2015-Feb-18 13:30N 53°32' E 009°54'0 0.0
2015-Feb-18 12:30N 53°32' E 009°54'0 0.0
2015-Feb-18 11:30N 53°32' E 009°54'0 0.0
2015-Feb-18 10:30N 53°32' E 009°54'0 0.2
2015-Feb-18 09:33N 53°32' E 009°54'5 5.3
2015-Feb-18 08:34N 53°34' E 009°46'1110.8
2015-Feb-18 07:33N 53°40' E 009°31'1212.4
2015-Feb-18 06:33N 53°50' E 009°20'1010.0
2015-Feb-18 05:33N 53°52' E 009°03'1212.0
2015-Feb-18 04:33N 53°52' E 008°43'1212.4
2015-Feb-18 03:33N 53°59' E 008°25'1010.0
2015-Feb-18 02:33N 54°02' E 008°09'0 0.1
2015-Feb-18 01:33N 54°02' E 008°09'0 0.2
2015-Feb-18 00:33N 54°02' E 008°09'3 3.4
2015-Feb-17 23:33N 53°59' E 008°07'7 7.3
2015-Feb-17 22:33N 53°58' E 007°55'4 1.6
2015-Feb-17 20:12N 53°55' E 007°50'0 0.0
2015-Feb-17 19:09N 53°55' E 007°50'0 0.0
2015-Feb-17 13:30N 53°55' E 007°50'0 0.0
2015-Feb-17 08:23N 53°55' E 007°50'5 5.8
2015-Feb-17 07:29N 53°52' E 007°56'1414.6
2015-Feb-17 06:33N 53°44' E 008°15'1312.9
2015-Feb-17 05:33N 53°35' E 008°31'1 1.0
2015-Feb-17 04:28N 53°34' E 008°32'0 0.0
2015-Feb-17 03:31N 53°34' E 008°32'0 0.0
2015-Feb-17 02:31N 53°34' E 008°32'0 0.0
2015-Feb-17 01:31N 53°34' E 008°32'0 0.0
2015-Feb-17 00:31N 53°34' E 008°32'0 0.0
2015-Feb-16 23:28N 53°34' E 008°32'0 0.0
2015-Feb-16 22:31N 53°34' E 008°32'0 0.0
2015-Feb-16 21:31N 53°34' E 008°32'0 0.0
2015-Feb-16 20:31N 53°34' E 008°32'0 0.0
2015-Feb-16 19:31N 53°34' E 008°32'0 0.0
2015-Feb-16 18:31N 53°34' E 008°32'0 0.0
2015-Feb-16 17:31N 53°34' E 008°32'0 0.0
2015-Feb-16 16:31N 53°34' E 008°32'0 0.0
2015-Feb-16 15:32N 53°34' E 008°32'0 0.0
2015-Feb-16 14:33N 53°34' E 008°32'0 0.0
2015-Feb-16 13:26N 53°34' E 008°32'0 0.0
2015-Feb-16 12:32N 53°34' E 008°32'0 0.0
2015-Feb-16 11:32N 53°34' E 008°32'0 0.0
2015-Feb-16 10:32N 53°34' E 008°32'0 0.0
2015-Feb-16 09:29N 53°34' E 008°32'0 0.0
2015-Feb-16 08:34N 53°34' E 008°32'7 6.7
2015-Feb-16 07:34N 53°39' E 008°24'1918.6
2015-Feb-16 06:33N 53°51' E 008°01'1713.1
2015-Feb-16 05:18N 53°55' E 007°33'1414.2
2015-Feb-16 04:19N 53°52' E 007°10'3316.2
2015-Feb-16 02:16N 53°44' E 006°16'1216.2
2015-Feb-16 01:33N 53°40' E 005°57'1615.9
2015-Feb-16 00:33N 53°36' E 005°31'1615.6
2015-Feb-15 23:34N 53°30' E 005°07'1515.4
2015-Feb-15 22:34N 53°23' E 004°43'1615.6
2015-Feb-15 21:31N 53°09' E 004°30'1515.8
2015-Feb-15 20:33N 52°56' E 004°18'1515.4
2015-Feb-15 19:33N 52°43' E 004°03'1515.3
2015-Feb-15 18:33N 52°32' E 003°47'1514.7
2015-Feb-15 17:33N 52°22' E 003°29'1515.0
2015-Feb-15 16:34N 52°11' E 003°12'1615.3
2015-Feb-15 15:30N 51°60' E 002°53'3115.9
2015-Feb-15 13:33N 51°52' E 002°05'1515.1
2015-Feb-15 12:33N 51°51' E 001°40'9 8.6
2015-Feb-15 11:34N 51°45' E 001°31'1918.7
2015-Feb-15 10:34N 51°32' E 001°08'1817.5
2015-Feb-15 09:34N 51°30' E 000°40'1111.2
2015-Feb-15 08:33N 51°27' E 000°23'2 1.7
2015-Feb-15 07:31N 51°28' E 000°20'0 0.0
2015-Feb-15 06:31N 51°28' E 000°20'0 0.0
2015-Feb-15 05:29N 51°28' E 000°20'0 0.0
2015-Feb-15 04:29N 51°28' E 000°20'0 0.0
2015-Feb-15 03:31N 51°28' E 000°20'0 0.0
2015-Feb-15 02:31N 51°28' E 000°20'0 0.0
2015-Feb-15 01:31N 51°28' E 000°20'0 0.0
2015-Feb-15 00:30N 51°28' E 000°20'0 0.0
2015-Feb-14 23:30N 51°28' E 000°20'0 0.0
2015-Feb-14 22:30N 51°28' E 000°20'0 0.0
2015-Feb-14 21:30N 51°28' E 000°20'0 0.0
2015-Feb-14 20:30N 51°28' E 000°20'0 0.0
2015-Feb-14 19:30N 51°28' E 000°20'0 0.0
2015-Feb-14 18:30N 51°28' E 000°20'0 0.0
2015-Feb-14 17:30N 51°28' E 000°20'0 0.0
2015-Feb-14 16:30N 51°28' E 000°20'0 0.0
2015-Feb-14 15:31N 51°28' E 000°20'0 0.0
2015-Feb-14 14:30N 51°28' E 000°20'0 0.0
2015-Feb-14 13:30N 51°28' E 000°20'0 0.0
2015-Feb-14 12:31N 51°28' E 000°20'0 0.0
2015-Feb-14 11:30N 51°28' E 000°20'0 0.0
2015-Feb-14 10:30N 51°28' E 000°20'0 0.0
2015-Feb-14 09:28N 51°28' E 000°20'  
Track history (hours):
 
Tides and Currents Weather Stations Pressure Air Temp Water Temp Dewpoint Dewpoint Depression Visibility Wind Speed Wind Dir Waves Ship Positions

CSAV Brasilia

Last reported at 2015-Feb-24 09:17 UTC. Time now 2015-Mar-27 02:00 UTC.
Position N 38°22' W 031°07'.
Warning: this ship's position is 30 days out of date.

Length 294 m; draft 13 m.

Type: Cargo ship. MMSI: 636092017.

Date/timePositionNaut miles runAvg speedWind from/ knotsBaromVisibWave heightAir tempDewpointWater temp
2015-Feb-24 09:17N 38°22' W 031°07'2816.2
2015-Feb-24 07:34N 38°36' W 030°36'1616.4
2015-Feb-24 06:34N 38°44' W 030°18'1616.2
2015-Feb-24 05:33N 38°53' W 030°00'1616.2
2015-Feb-24 04:33N 39°01' W 029°42'1615.9
2015-Feb-24 03:34N 39°09' W 029°25'1616.0
2015-Feb-24 02:33N 39°17' W 029°07'1616.1
2015-Feb-24 01:33N 39°26' W 028°49'1616.4
2015-Feb-24 00:33N 39°34' W 028°31'1616.5
2015-Feb-23 23:34N 39°43' W 028°13'1616.4
2015-Feb-23 22:34N 39°51' W 027°54'3716.6
2015-Feb-23 20:20N 40°10' W 027°13'  
2015-Feb-20 09:06N 50°27' W 000°22'713.2
2015-Feb-20 08:33N 50°28' W 000°11'1514.1
2015-Feb-20 07:30N 50°32' E 000°11'1515.8
2015-Feb-20 06:34N 50°37' E 000°34'1616.2
2015-Feb-20 05:34N 50°46' E 000°55'1615.5
2015-Feb-20 04:34N 50°55' E 001°15'1414.3
2015-Feb-20 03:33N 51°04' E 001°32'1212.5
2015-Feb-20 02:33N 51°13' E 001°46'1212.4
2015-Feb-20 01:33N 51°24' E 001°55'1313.0
2015-Feb-20 00:33N 51°34' E 002°08'1414.0
2015-Feb-19 23:33N 51°44' E 002°24'12014.9
2015-Feb-19 15:32N 53°16' E 004°29'1313.5
2015-Feb-19 14:33N 53°28' E 004°40'1515.2
2015-Feb-19 13:34N 53°34' E 005°03'1615.6
2015-Feb-19 12:34N 53°39' E 005°28'1515.4
2015-Feb-19 11:34N 53°44' E 005°52'1514.6
2015-Feb-19 10:34N 53°49' E 006°15'3413.8
2015-Feb-19 08:08N 53°57' E 007°11'913.8
2015-Feb-19 07:30N 53°59' E 007°25'1314.3
2015-Feb-19 06:33N 54°02' E 007°48'1514.6
2015-Feb-19 05:33N 54°00' E 008°12'1615.6
2015-Feb-19 04:33N 53°57' E 008°38'1514.6
2015-Feb-19 03:34N 53°51' E 009°01'1211.8
2015-Feb-19 02:33N 53°50' E 009°21'1212.4
2015-Feb-19 01:33N 53°39' E 009°31'10 9.5
2015-Feb-19 00:33N 53°34' E 009°44'6 6.3
2015-Feb-18 23:33N 53°32' E 009°54'0 0.0
2015-Feb-18 22:33N 53°32' E 009°54'0 0.0
2015-Feb-18 21:33N 53°32' E 009°54'0 0.0
2015-Feb-18 20:33N 53°32' E 009°54'0 0.0
2015-Feb-18 19:33N 53°32' E 009°54'0 0.0
2015-Feb-18 18:31N 53°32' E 009°54'0 0.0
2015-Feb-18 17:30N 53°32' E 009°54'0 0.0
2015-Feb-18 16:30N 53°32' E 009°54'0 0.0
2015-Feb-18 15:34N 53°32' E 009°54'0 0.0
2015-Feb-18 14:30N 53°32' E 009°54'0 0.0
2015-Feb-18 13:30N 53°32' E 009°54'0 0.0
2015-Feb-18 12:30N 53°32' E 009°54'0 0.0
2015-Feb-18 11:30N 53°32' E 009°54'0 0.0
2015-Feb-18 10:30N 53°32' E 009°54'0 0.2
2015-Feb-18 09:33N 53°32' E 009°54'5 5.3
2015-Feb-18 08:34N 53°34' E 009°46'1110.8
2015-Feb-18 07:33N 53°40' E 009°31'1212.4
2015-Feb-18 06:33N 53°50' E 009°20'1010.0
2015-Feb-18 05:33N 53°52' E 009°03'1212.0
2015-Feb-18 04:33N 53°52' E 008°43'1212.4
2015-Feb-18 03:33N 53°59' E 008°25'1010.0
2015-Feb-18 02:33N 54°02' E 008°09'0 0.1
2015-Feb-18 01:33N 54°02' E 008°09'0 0.2
2015-Feb-18 00:33N 54°02' E 008°09'3 3.4
2015-Feb-17 23:33N 53°59' E 008°07'7 7.3
2015-Feb-17 22:33N 53°58' E 007°55'4 1.6
2015-Feb-17 20:12N 53°55' E 007°50'0 0.0
2015-Feb-17 19:09N 53°55' E 007°50'0 0.0
2015-Feb-17 13:30N 53°55' E 007°50'0 0.0
2015-Feb-17 08:23N 53°55' E 007°50'5 5.8
2015-Feb-17 07:29N 53°52' E 007°56'1414.6
2015-Feb-17 06:33N 53°44' E 008°15'1312.9
2015-Feb-17 05:33N 53°35' E 008°31'1 1.0
2015-Feb-17 04:28N 53°34' E 008°32'0 0.0
2015-Feb-17 03:31N 53°34' E 008°32'0 0.0
2015-Feb-17 02:31N 53°34' E 008°32'0 0.0
2015-Feb-17 01:31N 53°34' E 008°32'0 0.0
2015-Feb-17 00:31N 53°34' E 008°32'0 0.0
2015-Feb-16 23:28N 53°34' E 008°32'0 0.0
2015-Feb-16 22:31N 53°34' E 008°32'0 0.0
2015-Feb-16 21:31N 53°34' E 008°32'0 0.0
2015-Feb-16 20:31N 53°34' E 008°32'0 0.0
2015-Feb-16 19:31N 53°34' E 008°32'0 0.0
2015-Feb-16 18:31N 53°34' E 008°32'0 0.0
2015-Feb-16 17:31N 53°34' E 008°32'0 0.0
2015-Feb-16 16:31N 53°34' E 008°32'0 0.0
2015-Feb-16 15:32N 53°34' E 008°32'0 0.0
2015-Feb-16 14:33N 53°34' E 008°32'0 0.0
2015-Feb-16 13:26N 53°34' E 008°32'0 0.0
2015-Feb-16 12:32N 53°34' E 008°32'0 0.0
2015-Feb-16 11:32N 53°34' E 008°32'0 0.0
2015-Feb-16 10:32N 53°34' E 008°32'0 0.0
2015-Feb-16 09:29N 53°34' E 008°32'0 0.0
2015-Feb-16 08:34N 53°34' E 008°32'7 6.7
2015-Feb-16 07:34N 53°39' E 008°24'1918.6
2015-Feb-16 06:33N 53°51' E 008°01'1713.1
2015-Feb-16 05:18N 53°55' E 007°33'1414.2
2015-Feb-16 04:19N 53°52' E 007°10'3316.2
2015-Feb-16 02:16N 53°44' E 006°16'1216.2
2015-Feb-16 01:33N 53°40' E 005°57'1615.9
2015-Feb-16 00:33N 53°36' E 005°31'1615.6
2015-Feb-15 23:34N 53°30' E 005°07'1515.4
2015-Feb-15 22:34N 53°23' E 004°43'1615.6
2015-Feb-15 21:31N 53°09' E 004°30'1515.8
2015-Feb-15 20:33N 52°56' E 004°18'1515.4
2015-Feb-15 19:33N 52°43' E 004°03'1515.3
2015-Feb-15 18:33N 52°32' E 003°47'1514.7
2015-Feb-15 17:33N 52°22' E 003°29'1515.0
2015-Feb-15 16:34N 52°11' E 003°12'1615.3
2015-Feb-15 15:30N 51°60' E 002°53'3115.9
2015-Feb-15 13:33N 51°52' E 002°05'1515.1
2015-Feb-15 12:33N 51°51' E 001°40'9 8.6
2015-Feb-15 11:34N 51°45' E 001°31'1918.7
2015-Feb-15 10:34N 51°32' E 001°08'1817.5
2015-Feb-15 09:34N 51°30' E 000°40'1111.2
2015-Feb-15 08:33N 51°27' E 000°23'2 1.7
2015-Feb-15 07:31N 51°28' E 000°20'0 0.0
2015-Feb-15 06:31N 51°28' E 000°20'0 0.0
2015-Feb-15 05:29N 51°28' E 000°20'0 0.0
2015-Feb-15 04:29N 51°28' E 000°20'0 0.0
2015-Feb-15 03:31N 51°28' E 000°20'0 0.0
2015-Feb-15 02:31N 51°28' E 000°20'0 0.0
2015-Feb-15 01:31N 51°28' E 000°20'0 0.0
2015-Feb-15 00:30N 51°28' E 000°20'0 0.0
2015-Feb-14 23:30N 51°28' E 000°20'0 0.0
2015-Feb-14 22:30N 51°28' E 000°20'0 0.0
2015-Feb-14 21:30N 51°28' E 000°20'0 0.0
2015-Feb-14 20:30N 51°28' E 000°20'0 0.0
2015-Feb-14 19:30N 51°28' E 000°20'0 0.0
2015-Feb-14 18:30N 51°28' E 000°20'0 0.0
2015-Feb-14 17:30N 51°28' E 000°20'0 0.0
2015-Feb-14 16:30N 51°28' E 000°20'0 0.0
2015-Feb-14 15:31N 51°28' E 000°20'0 0.0
2015-Feb-14 14:30N 51°28' E 000°20'0 0.0
2015-Feb-14 13:30N 51°28' E 000°20'0 0.0
2015-Feb-14 12:31N 51°28' E 000°20'0 0.0
2015-Feb-14 11:30N 51°28' E 000°20'0 0.0
2015-Feb-14 10:30N 51°28' E 000°20'0 0.0
2015-Feb-14 09:28N 51°28' E 000°20'  

Dump ship's entire track history